City of Edinburgh, United Kingdom

11:43 PM BST on August 27, 2016 (GMT +0100)
Duddingston | | Change Station

Elev 112 ft 55.94 °N, 3.13 °W | Updated 378 days ago

Partly Cloudy
Partly Cloudy
56 °F
Feels Like 56 °F
N
5
Wind Variable Wind from ENE
Gusts mph

Today
High -- | Low -- °F
--% Chance of Precip.
Yesterday
High -- | Low -- °F
Precip. -- in
Pressure 29.95 in
Visibility 6.2 miles
Clouds Few 300 ft
Dew Point 55 °F
Humidity 97%
Rainfall in
Snow Depth Not available.
6:07 AM 8:18 PM
Waning Crescent, 21% visible
METAR EGPH 272220Z 06008KT 9999 FEW003 14/13 Q1014
Pressure 29.95 in
Visibility 6.2 miles
Clouds Few 300 ft
Dew Point 55 °F
Humidity 97%
Rainfall in
Snow Depth Not available.
6:07 AM 8:18 PM
Waning Crescent, 21% visible
METAR EGPH 272220Z 06008KT 9999 FEW003 14/13 Q1014

10-Day Weather Forecast

×

Almanac

Astronomy

Aug. 27, 2016 Rise Set
Actual Time
Civil Twilight
Nautical Twilight
Astronomical Twilight
Moon
Length of Visible Light
Length of Day
Tomorrow will be .
, % of the Moon is Illuminated

Today's Extremes

Country Highs Country Lows

Community

WunderPhotos

Upload Photos

1,935,458 photos uploaded!

WunderBlog® & News

Nearby

Air Quality

  Air Quality AQ Index Pollutant
Not available.

Snow Depth

Station Depth Elevation

Earthquake Activity

City Distance Mag. Time & Date
Minimum magnitude displayed is 2.5.

Coastal Water Temperatures

Place Temperature

Stations

Nearby Weather Stations

Station Location Temp. Windchill Dew Point Humidity Wind Precip. Elev Updated Type